Terminal Aerodrome Forecast
Issued by NWS

Home | Current Version | Previous Version | Text Only | Print | Product List | Glossary On
Versions: 1 2 3 4 5 6 7 8 9 10 11 12 13 14 15 16 17 18 19 20 21 22 23 24 25 26 27 28 29 30 31 32 33 34 35
000
FTUS46 KLOX 262341
TAFLAX
TAF
KLAX 262341Z 2700/2806 25012KT P6SM SCT013 SCT025 SCT180
     FM270300 26010KT P6SM FEW040 BKN120
     FM270900 VRB03KT P6SM BKN025 BKN100
     FM271700 31007KT P6SM SCT040
     FM271900 27012KT P6SM SKC
     FM272100 25018G25KT P6SM SKC
     FM280300 27014KT P6SM SKC
     FM280500 31010KT P6SM SKC=

USA.gov is the U.S. government's official web portal to all federal, state and local government web resources and services.